createdAt,value
2024-04-03T00:00:57.414Z,0.00
2024-04-03T00:01:57.407Z,0.00
2024-04-03T00:02:57.411Z,0.00
2024-04-03T00:03:57.381Z,0.00
2024-04-03T00:04:57.367Z,0.00
2024-04-03T00:05:57.359Z,0.00
2024-04-03T00:06:57.357Z,0.00
2024-04-03T00:07:57.328Z,0.00
2024-04-03T00:08:57.324Z,0.00
2024-04-03T00:09:57.327Z,0.00
2024-04-03T00:10:57.297Z,0.00
2024-04-03T00:11:57.284Z,0.00
2024-04-03T00:12:57.315Z,0.00
2024-04-03T00:13:57.272Z,0.00
2024-04-03T00:14:57.264Z,0.00
2024-04-03T00:15:57.237Z,0.00
2024-04-03T00:16:57.244Z,0.00
2024-04-03T00:17:57.230Z,0.00
2024-04-03T00:18:57.204Z,0.00
2024-04-03T00:19:57.198Z,0.00
2024-04-03T00:20:57.204Z,0.00
2024-04-03T00:21:57.170Z,0.00
2024-04-03T00:22:57.212Z,0.00
2024-04-03T00:23:57.147Z,0.00
2024-04-03T00:24:57.144Z,0.00
2024-04-03T00:25:57.156Z,0.00
2024-04-03T00:26:57.111Z,0.00
2024-04-03T00:27:57.105Z,0.00
2024-04-03T00:28:57.104Z,0.00
2024-04-03T00:29:57.092Z,0.00
2024-04-03T00:30:57.066Z,0.00
2024-04-03T00:31:57.061Z,0.00
2024-04-03T00:32:57.044Z,0.00
2024-04-03T00:33:57.047Z,0.00
2024-04-03T00:34:57.031Z,0.00
2024-04-03T00:35:57.435Z,0.00
2024-04-03T00:36:57.000Z,0.00
2024-04-03T00:37:56.985Z,0.00
2024-04-03T00:38:56.973Z,0.00
2024-04-03T00:39:56.970Z,0.00
2024-04-03T00:40:57.015Z,0.00
2024-04-03T00:41:56.951Z,0.00
2024-04-03T00:42:56.929Z,0.00
2024-04-03T00:43:56.917Z,0.00
2024-04-03T00:44:56.916Z,0.00
2024-04-03T00:45:56.923Z,0.00
2024-04-03T00:46:56.884Z,0.00
2024-04-03T00:47:56.870Z,0.00
2024-04-03T00:48:56.858Z,0.00
2024-04-03T00:49:56.862Z,0.00
2024-04-03T00:50:56.845Z,0.00
2024-04-03T00:51:56.837Z,0.00
2024-04-03T00:52:56.819Z,0.00
2024-04-03T00:53:56.811Z,0.00
2024-04-03T00:54:56.803Z,0.00
2024-04-03T00:55:56.788Z,0.00
2024-04-03T00:56:56.791Z,0.00
2024-04-03T00:57:56.770Z,0.00
2024-04-03T00:58:56.768Z,0.00
2024-04-03T00:59:56.747Z,0.00
2024-04-03T01:00:56.722Z,0.00
2024-04-03T01:01:56.709Z,0.00
2024-04-03T01:02:56.756Z,0.00
2024-04-03T01:03:57.417Z,0.00
2024-04-03T01:04:56.684Z,0.00
2024-04-03T01:05:56.668Z,0.00
2024-04-03T01:06:56.653Z,0.00
2024-04-03T01:07:56.653Z,0.00
2024-04-03T01:08:56.647Z,0.00
2024-04-03T01:09:56.630Z,0.00
2024-04-03T01:10:56.613Z,0.00
2024-04-03T01:11:56.597Z,0.00
2024-04-03T01:12:56.637Z,0.00
2024-04-03T01:13:56.591Z,0.00
2024-04-03T01:14:56.566Z,0.00
2024-04-03T01:15:56.554Z,0.00
2024-04-03T01:16:56.544Z,0.00
2024-04-03T01:17:56.545Z,0.00
2024-04-03T01:18:56.524Z,0.00
2024-04-03T01:19:56.505Z,0.00
2024-04-03T01:20:56.502Z,0.00
2024-04-03T01:21:56.518Z,0.00
2024-04-03T01:22:56.973Z,0.00
2024-04-03T01:23:56.466Z,0.00
2024-04-03T01:24:56.460Z,0.00
2024-04-03T01:25:56.443Z,0.00
2024-04-03T01:26:56.442Z,0.00
2024-04-03T01:27:56.444Z,0.00
2024-04-03T01:28:56.419Z,0.00
2024-04-03T01:29:56.410Z,0.00
2024-04-03T01:30:56.399Z,0.00
2024-04-03T01:31:56.392Z,0.00
2024-04-03T01:32:56.359Z,0.00
2024-04-03T01:33:56.350Z,0.00
2024-04-03T01:34:56.338Z,0.00
2024-04-03T01:35:56.324Z,0.00
2024-04-03T01:36:56.340Z,0.00
2024-04-03T01:37:56.309Z,0.00
2024-04-03T01:38:56.297Z,0.00
2024-04-03T01:39:56.280Z,0.00
2024-04-03T01:40:56.284Z,0.00
2024-04-03T01:41:56.274Z,0.00
2024-04-03T01:42:56.291Z,0.00
2024-04-03T01:43:56.235Z,0.00
2024-04-03T01:44:56.224Z,0.00
2024-04-03T01:45:56.235Z,0.00
2024-04-03T01:46:56.208Z,0.00
2024-04-03T01:47:56.194Z,0.00
2024-04-03T01:48:56.177Z,0.00
2024-04-03T01:49:56.162Z,0.00
2024-04-03T01:50:56.178Z,0.00
2024-04-03T01:51:56.156Z,0.00
2024-04-03T01:52:56.142Z,0.00
2024-04-03T01:53:56.149Z,0.00
2024-04-03T01:54:56.130Z,0.00
2024-04-03T01:55:56.127Z,0.00
2024-04-03T01:56:56.087Z,0.00
2024-04-03T01:57:56.114Z,0.00
2024-04-03T01:58:56.077Z,0.00
2024-04-03T01:59:56.069Z,0.00
2024-04-03T02:00:56.045Z,0.00
2024-04-03T02:01:56.044Z,0.00
2024-04-03T02:02:56.052Z,0.00
2024-04-03T02:03:56.011Z,0.00
2024-04-03T02:04:56.010Z,0.00
2024-04-03T02:05:55.985Z,0.00
2024-04-03T02:06:55.978Z,0.00
2024-04-03T02:07:55.967Z,0.00
2024-04-03T02:08:55.970Z,0.00
2024-04-03T02:09:55.959Z,0.00
2024-04-03T02:10:55.929Z,0.00
2024-04-03T02:11:55.914Z,0.00
2024-04-03T02:12:55.913Z,0.00
2024-04-03T02:13:55.907Z,0.00
2024-04-03T02:14:55.887Z,0.00
2024-04-03T02:15:55.887Z,0.00
2024-04-03T02:16:55.871Z,0.00
2024-04-03T02:17:55.866Z,0.00
2024-04-03T02:18:55.858Z,0.00
2024-04-03T02:19:55.843Z,0.00
2024-04-03T02:20:55.842Z,0.00
2024-04-03T02:21:55.822Z,0.00
2024-04-03T02:22:55.847Z,0.00
2024-04-03T02:23:55.975Z,0.00
2024-04-03T02:24:55.772Z,0.00
2024-04-03T02:25:55.763Z,0.00
2024-04-03T02:26:55.753Z,0.00
2024-04-03T02:27:55.757Z,0.00
2024-04-03T02:28:55.752Z,0.00
2024-04-03T02:29:55.728Z,0.00
2024-04-03T02:30:55.708Z,0.00
2024-04-03T02:31:55.692Z,0.00
2024-04-03T02:32:55.697Z,0.00
2024-04-03T02:33:55.690Z,0.00
2024-04-03T02:34:55.661Z,0.00
2024-04-03T02:35:55.656Z,0.00
2024-04-03T02:36:55.636Z,0.00
2024-04-03T02:37:55.643Z,0.00
2024-04-03T02:38:55.628Z,0.00
2024-04-03T02:39:55.630Z,0.00
2024-04-03T02:40:55.599Z,0.00
2024-04-03T02:41:55.594Z,0.00
2024-04-03T02:42:55.577Z,0.00
2024-04-03T02:43:55.559Z,0.00
2024-04-03T02:44:55.543Z,0.00
2024-04-03T02:45:55.540Z,0.00
2024-04-03T02:46:55.542Z,0.00
2024-04-03T02:47:55.517Z,0.00
2024-04-03T02:48:55.508Z,0.00
2024-04-03T02:49:55.505Z,0.00
2024-04-03T02:50:55.935Z,0.00
2024-04-03T02:51:55.481Z,0.00
2024-04-03T02:52:55.457Z,0.00
2024-04-03T02:53:55.446Z,0.00
2024-04-03T02:54:55.436Z,0.00
2024-04-03T02:55:55.445Z,0.00
2024-04-03T02:56:55.439Z,0.00
2024-04-03T02:57:55.405Z,0.00
2024-04-03T02:58:55.399Z,0.00
2024-04-03T02:59:55.377Z,0.00
2024-04-03T03:00:55.377Z,0.00
2024-04-03T03:01:55.374Z,0.00
2024-04-03T03:02:55.366Z,0.00
2024-04-03T03:03:55.335Z,0.00
2024-04-03T03:04:55.327Z,0.00
2024-04-03T03:05:55.332Z,0.00
2024-04-03T03:06:55.297Z,0.00
2024-04-03T03:07:55.284Z,0.00
2024-04-03T03:08:55.275Z,0.00
2024-04-03T03:09:55.300Z,0.00
2024-04-03T03:10:55.269Z,0.00
2024-04-03T03:11:55.244Z,0.00
2024-04-03T03:12:55.230Z,0.00
2024-04-03T03:13:55.215Z,0.00
2024-04-03T03:14:55.239Z,0.00
2024-04-03T03:15:55.194Z,0.00
2024-04-03T03:16:55.206Z,0.00
2024-04-03T03:17:55.180Z,0.00
2024-04-03T03:18:55.165Z,0.00
2024-04-03T03:19:55.168Z,0.00
2024-04-03T03:20:55.135Z,0.00
2024-04-03T03:21:55.171Z,0.00
2024-04-03T03:22:55.122Z,0.00
2024-04-03T03:23:55.117Z,0.00
2024-04-03T03:24:55.109Z,0.00
2024-04-03T03:25:55.087Z,0.00
2024-04-03T03:26:55.113Z,0.00
2024-04-03T03:27:55.061Z,0.00
2024-04-03T03:28:55.062Z,0.00
2024-04-03T03:29:55.032Z,0.00
2024-04-03T03:30:55.024Z,0.00
2024-04-03T03:31:55.015Z,0.00
2024-04-03T03:32:55.005Z,0.00
2024-04-03T03:33:55.003Z,0.00
2024-04-03T03:34:54.980Z,0.00
2024-04-03T03:35:54.971Z,0.00
2024-04-03T03:36:54.959Z,0.00
2024-04-03T03:37:55.027Z,0.00
2024-04-03T03:38:54.954Z,0.00
2024-04-03T03:39:54.932Z,0.00
2024-04-03T03:40:54.911Z,0.00
2024-04-03T03:41:54.908Z,0.00
2024-04-03T03:42:54.901Z,0.00
2024-04-03T03:43:54.882Z,0.00
2024-04-03T03:44:54.869Z,0.00
2024-04-03T03:45:54.863Z,0.00
2024-04-03T03:46:54.843Z,0.00
2024-04-03T03:47:54.845Z,0.00
2024-04-03T03:48:54.824Z,0.00
2024-04-03T03:49:54.813Z,0.00
2024-04-03T03:50:54.804Z,0.00
2024-04-03T03:51:54.802Z,0.00
2024-04-03T03:52:54.791Z,0.00
2024-04-03T03:53:54.811Z,0.00
2024-04-03T03:54:54.752Z,0.00
2024-04-03T03:55:54.744Z,0.00
2024-04-03T03:56:54.746Z,0.00
2024-04-03T03:57:54.724Z,0.00
2024-04-03T03:58:54.711Z,0.00
2024-04-03T03:59:54.698Z,0.00
2024-04-03T04:00:54.692Z,0.00
2024-04-03T04:01:54.807Z,0.00
2024-04-03T04:02:54.666Z,0.00
2024-04-03T04:03:54.658Z,0.00
2024-04-03T04:04:54.640Z,0.00
2024-04-03T04:05:54.634Z,0.00
2024-04-03T04:06:54.636Z,0.00
2024-04-03T04:07:54.664Z,0.00
2024-04-03T04:08:54.595Z,0.00
2024-04-03T04:09:54.602Z,0.00
2024-04-03T04:10:54.593Z,0.00
2024-04-03T04:11:54.580Z,0.00
2024-04-03T04:12:54.552Z,0.00
2024-04-03T04:13:54.543Z,0.00
2024-04-03T04:14:54.525Z,0.00
2024-04-03T04:15:54.595Z,0.00
2024-04-03T04:16:54.506Z,0.00
2024-04-03T04:17:54.502Z,0.00
2024-04-03T04:18:54.481Z,0.00
2024-04-03T04:19:54.472Z,0.00
2024-04-03T04:20:54.472Z,0.00
2024-04-03T04:21:54.453Z,0.00
2024-04-03T04:22:54.504Z,0.00
2024-04-03T04:23:54.421Z,0.00
2024-04-03T04:24:54.438Z,0.00
2024-04-03T04:25:54.428Z,0.00
2024-04-03T04:26:54.390Z,4.00
2024-04-03T04:27:54.383Z,0.00
2024-04-03T04:28:54.368Z,4.00
2024-04-03T04:29:54.376Z,4.00
2024-04-03T04:30:54.346Z,4.00
2024-04-03T04:31:54.331Z,4.00
2024-04-03T04:32:54.321Z,8.00
2024-04-03T04:33:54.310Z,8.00
2024-04-03T04:34:54.309Z,8.00
2024-04-03T04:35:54.289Z,12.00
2024-04-03T04:36:54.288Z,12.00
2024-04-03T04:37:54.270Z,16.00
2024-04-03T04:38:54.268Z,20.00
2024-04-03T04:39:54.261Z,20.00
2024-04-03T04:40:54.232Z,20.00
2024-04-03T04:41:54.237Z,24.00
2024-04-03T04:42:54.209Z,28.00
2024-04-03T04:43:54.217Z,28.00
2024-04-03T04:44:54.186Z,32.00
2024-04-03T04:45:54.188Z,36.00
2024-04-03T04:46:54.163Z,44.00
2024-04-03T04:47:54.657Z,52.00
2024-04-03T04:48:54.155Z,60.00
2024-04-03T04:49:54.129Z,68.00
2024-04-03T04:50:54.118Z,80.00
2024-04-03T04:51:54.109Z,96.00
2024-04-03T04:52:54.119Z,108.00
2024-04-03T04:53:54.126Z,120.00
2024-04-03T04:54:54.074Z,136.00
2024-04-03T04:55:54.063Z,148.00
2024-04-03T04:56:54.071Z,168.00
2024-04-03T04:57:54.101Z,188.00
2024-04-03T04:58:54.032Z,204.00
2024-04-03T04:59:54.019Z,224.00
2024-04-03T05:00:54.005Z,248.00
2024-04-03T05:01:54.015Z,272.00
2024-04-03T05:02:53.999Z,292.00
2024-04-03T05:03:53.978Z,308.00
2024-04-03T05:04:53.957Z,352.00
2024-04-03T05:05:53.946Z,400.00
2024-04-03T05:06:53.960Z,436.00
2024-04-03T05:07:53.991Z,452.00
2024-04-03T05:08:53.917Z,464.00
2024-04-03T05:09:53.906Z,492.00
2024-04-03T05:10:53.890Z,504.00
2024-04-03T05:11:53.899Z,528.00
2024-04-03T05:12:53.879Z,536.00
2024-04-03T05:13:53.867Z,548.00
2024-04-03T05:14:53.848Z,560.00
2024-04-03T05:15:53.866Z,576.00
2024-04-03T05:16:53.851Z,584.00
2024-04-03T05:17:53.816Z,604.00
2024-04-03T05:18:53.805Z,632.00
2024-04-03T05:19:53.788Z,648.00
2024-04-03T05:20:53.789Z,648.00
2024-04-03T05:21:53.768Z,656.00
2024-04-03T05:22:53.766Z,684.00
2024-04-03T05:23:53.761Z,732.00
2024-04-03T05:24:53.729Z,788.00
2024-04-03T05:25:53.744Z,848.00
2024-04-03T05:26:53.709Z,892.00
2024-04-03T05:27:53.699Z,920.00
2024-04-03T05:28:53.695Z,928.00
2024-04-03T05:29:53.714Z,924.00
2024-04-03T05:30:53.674Z,912.00
2024-04-03T05:31:53.657Z,876.00
2024-04-03T05:32:53.638Z,844.00
2024-04-03T05:33:53.648Z,832.00
2024-04-03T05:34:53.629Z,844.00
2024-04-03T05:35:53.623Z,872.00
2024-04-03T05:36:53.596Z,924.00
2024-04-03T05:37:53.594Z,968.00
2024-04-03T05:38:53.572Z,1016.00
2024-04-03T05:39:53.574Z,1080.00
2024-04-03T05:41:02.294Z,1156.00
2024-04-03T05:41:54.542Z,1228.00
2024-04-03T05:42:53.698Z,1300.00
2024-04-03T05:43:53.516Z,1376.00
2024-04-03T05:44:53.616Z,1440.00
2024-04-03T05:45:53.505Z,1524.00
2024-04-03T05:46:53.518Z,1652.00
2024-04-03T05:47:53.491Z,1796.00
2024-04-03T05:48:54.450Z,1904.00
2024-04-03T05:49:53.459Z,1972.00
2024-04-03T05:50:53.432Z,2020.00
2024-04-03T05:51:53.426Z,2060.00
2024-04-03T05:52:53.413Z,2068.00
2024-04-03T05:53:53.415Z,2088.00
2024-04-03T05:54:53.385Z,2084.00
2024-04-03T05:55:53.378Z,2020.00
2024-04-03T05:56:53.369Z,1936.00
2024-04-03T05:57:53.366Z,1852.00
2024-04-03T05:58:53.370Z,1808.00
2024-04-03T05:59:53.338Z,1772.00
2024-04-03T06:00:53.406Z,1772.00
2024-04-03T06:01:53.322Z,1796.00
2024-04-03T06:02:54.665Z,1800.00
2024-04-03T06:03:53.322Z,1764.00
2024-04-03T06:04:53.279Z,1712.00
2024-04-03T06:05:53.269Z,1676.00
2024-04-03T06:06:53.255Z,1676.00
2024-04-03T06:07:53.255Z,1732.00
2024-04-03T06:08:53.240Z,1840.00
2024-04-03T06:09:53.224Z,1916.00
2024-04-03T06:10:53.237Z,1944.00
2024-04-03T06:11:53.201Z,1976.00
2024-04-03T06:12:53.203Z,2048.00
2024-04-03T06:13:53.180Z,2160.00
2024-04-03T06:14:53.162Z,2280.00
2024-04-03T06:15:53.158Z,2404.00
2024-04-03T06:16:53.156Z,2500.00
2024-04-03T06:17:53.180Z,2556.00
2024-04-03T06:18:53.117Z,2576.00
2024-04-03T06:19:53.111Z,2600.00
2024-04-03T06:20:53.110Z,2612.00
2024-04-03T06:21:53.084Z,2624.00
2024-04-03T06:22:53.104Z,2644.00
2024-04-03T06:23:53.064Z,2692.00
2024-04-03T06:24:53.054Z,2748.00
2024-04-03T06:25:53.041Z,2780.00
2024-04-03T06:26:53.040Z,2780.00
2024-04-03T06:27:53.033Z,2756.00
2024-04-03T06:28:53.007Z,2740.00
2024-04-03T06:29:52.998Z,2760.00
2024-04-03T06:30:52.993Z,2800.00
2024-04-03T06:31:52.992Z,2828.00
2024-04-03T06:32:52.961Z,2860.00
2024-04-03T06:33:52.958Z,2892.00
2024-04-03T06:34:52.941Z,2920.00
2024-04-03T06:35:52.933Z,2972.00
2024-04-03T06:36:52.932Z,3076.00
2024-04-03T06:37:52.919Z,3216.00
2024-04-03T06:38:52.903Z,3376.00
2024-04-03T06:39:52.888Z,3552.00
2024-04-03T06:40:53.204Z,3748.00
2024-04-03T06:41:52.877Z,3964.00
2024-04-03T06:42:52.843Z,4176.00
2024-04-03T06:43:52.838Z,4356.00
2024-04-03T06:44:52.824Z,4496.00
2024-04-03T06:45:52.837Z,4596.00
2024-04-03T06:46:52.803Z,4628.00
2024-04-03T06:47:52.846Z,4576.00
2024-04-03T06:48:52.818Z,4472.00
2024-04-03T06:49:52.779Z,4268.00
2024-04-03T06:50:52.789Z,4012.00
2024-04-03T06:51:52.745Z,3752.00
2024-04-03T06:52:52.734Z,3536.00
2024-04-03T06:53:52.727Z,3384.00
2024-04-03T06:54:52.732Z,3288.00
2024-04-03T06:55:52.714Z,3240.00
2024-04-03T06:56:52.691Z,3212.00
2024-04-03T06:57:52.683Z,3220.00
2024-04-03T06:58:52.662Z,3268.00
2024-04-03T06:59:52.671Z,3328.00
2024-04-03T07:00:52.641Z,3392.00
2024-04-03T07:01:52.629Z,3452.00
2024-04-03T07:02:52.624Z,3520.00
2024-04-03T07:03:52.609Z,3592.00
2024-04-03T07:04:54.051Z,3640.00
2024-04-03T07:05:52.598Z,3664.00
2024-04-03T07:06:52.584Z,3668.00
2024-04-03T07:07:52.566Z,3676.00
2024-04-03T07:08:52.580Z,3700.00
2024-04-03T07:09:52.552Z,3700.00
2024-04-03T07:10:52.543Z,3664.00
2024-04-03T07:11:52.523Z,3592.00
2024-04-03T07:12:52.511Z,3520.00
2024-04-03T07:13:52.508Z,3464.00
2024-04-03T07:14:52.488Z,3408.00
2024-04-03T07:15:52.487Z,3352.00
2024-04-03T07:16:52.464Z,3284.00
2024-04-03T07:17:52.480Z,3260.00
2024-04-03T07:18:52.459Z,3252.00
2024-04-03T07:19:52.437Z,3240.00
2024-04-03T07:20:52.422Z,3240.00
2024-04-03T07:21:52.421Z,3252.00
2024-04-03T07:22:52.395Z,3260.00
2024-04-03T07:23:52.392Z,3264.00
2024-04-03T07:24:52.372Z,3260.00
2024-04-03T07:25:52.365Z,3256.00
2024-04-03T07:26:52.349Z,3304.00
2024-04-03T07:27:52.359Z,3456.00
2024-04-03T07:28:52.342Z,3612.00
2024-04-03T07:29:52.315Z,3652.00
2024-04-03T07:30:52.305Z,3568.00
2024-04-03T07:31:52.291Z,3632.00
2024-04-03T07:32:52.306Z,3772.00
2024-04-03T07:33:52.272Z,3884.00
2024-04-03T07:34:52.259Z,3952.00
2024-04-03T07:35:52.250Z,4104.00
2024-04-03T07:36:52.247Z,4256.00
2024-04-03T07:37:52.260Z,4364.00
2024-04-03T07:38:52.223Z,4484.00
2024-04-03T07:39:52.214Z,4596.00
2024-04-03T07:40:52.203Z,4696.00
2024-04-03T07:41:52.193Z,4800.00
2024-04-03T07:42:52.185Z,4924.00
2024-04-03T07:43:52.171Z,5056.00
2024-04-03T07:44:52.144Z,5192.00
2024-04-03T07:45:52.134Z,5272.00
2024-04-03T07:46:52.147Z,5256.00
2024-04-03T07:47:52.121Z,5156.00
2024-04-03T07:48:52.117Z,4996.00
2024-04-03T07:49:52.096Z,4832.00
2024-04-03T07:50:52.080Z,4704.00
2024-04-03T07:51:52.073Z,4608.00
2024-04-03T07:52:54.601Z,4564.00
2024-04-03T07:53:52.059Z,4508.00
2024-04-03T07:54:52.041Z,4448.00
2024-04-03T07:55:52.026Z,4404.00
2024-04-03T07:56:52.023Z,4352.00
2024-04-03T07:57:52.031Z,4276.00
2024-04-03T07:58:51.987Z,4208.00
2024-04-03T07:59:51.973Z,4096.00
2024-04-03T08:00:51.975Z,3936.00
2024-04-03T08:01:51.972Z,3800.00
2024-04-03T08:02:51.940Z,3672.00
2024-04-03T08:03:51.999Z,3588.00
2024-04-03T08:04:51.925Z,3532.00
2024-04-03T08:05:51.925Z,3492.00
2024-04-03T08:06:51.899Z,3488.00
2024-04-03T08:07:51.881Z,3492.00
2024-04-03T08:08:51.882Z,3492.00
2024-04-03T08:09:51.874Z,3512.00
2024-04-03T08:10:51.874Z,3552.00
2024-04-03T08:11:51.841Z,3592.00
2024-04-03T08:12:51.829Z,3644.00
2024-04-03T08:13:51.825Z,3704.00
2024-04-03T08:14:51.823Z,3760.00
2024-04-03T08:15:51.821Z,3712.00
2024-04-03T08:16:51.804Z,3588.00
2024-04-03T08:17:51.771Z,3456.00
2024-04-03T08:18:51.767Z,3396.00
2024-04-03T08:19:51.760Z,3404.00
2024-04-03T08:20:51.733Z,3356.00
2024-04-03T08:21:51.740Z,3240.00
2024-04-03T08:22:51.735Z,3188.00
2024-04-03T08:23:51.711Z,3048.00
2024-04-03T08:24:51.708Z,2892.00
2024-04-03T08:25:54.544Z,2768.00
2024-04-03T08:26:51.675Z,2764.00
2024-04-03T08:27:51.660Z,2708.00
2024-04-03T08:28:51.663Z,2744.00
2024-04-03T08:29:51.655Z,2488.00
2024-04-03T08:30:51.625Z,2312.00
2024-04-03T08:31:51.615Z,1944.00
2024-04-03T08:32:51.604Z,1904.00
2024-04-03T08:33:56.975Z,1892.00
2024-04-03T08:34:51.581Z,2120.00
2024-04-03T08:35:51.569Z,2544.00
2024-04-03T08:36:51.579Z,2948.00
2024-04-03T08:37:58.050Z,3292.00
2024-04-03T08:38:52.560Z,3264.00
2024-04-03T08:39:51.521Z,3260.00
2024-04-03T08:40:51.515Z,3060.00
2024-04-03T08:41:51.511Z,3180.00
2024-04-03T08:42:51.512Z,3472.00
2024-04-03T08:43:51.493Z,3432.00
2024-04-03T08:44:51.476Z,3612.00
2024-04-03T08:45:51.463Z,3648.00
2024-04-03T08:46:51.449Z,3488.00
2024-04-03T08:47:51.473Z,3400.00
2024-04-03T08:48:51.422Z,3408.00
2024-04-03T08:49:51.407Z,3296.00
2024-04-03T08:50:51.397Z,3156.00
2024-04-03T08:51:51.387Z,3368.00
2024-04-03T08:52:51.406Z,3444.00
2024-04-03T08:53:51.375Z,3480.00
2024-04-03T08:54:51.352Z,3756.00
2024-04-03T08:55:51.367Z,3724.00
2024-04-03T08:56:51.378Z,3704.00
2024-04-03T08:57:51.348Z,3692.00
2024-04-03T08:58:51.312Z,3632.00
2024-04-03T08:59:51.295Z,3504.00
2024-04-03T09:00:51.387Z,3216.00
2024-04-03T09:01:51.291Z,3016.00
2024-04-03T09:02:51.260Z,2872.00
2024-04-03T09:03:51.304Z,2724.00
2024-04-03T09:04:51.239Z,2628.00
2024-04-03T09:05:51.226Z,2628.00
2024-04-03T09:06:51.241Z,2596.00
2024-04-03T09:07:56.073Z,2668.00
2024-04-03T09:08:52.195Z,2932.00
2024-04-03T09:09:51.191Z,3132.00
2024-04-03T09:10:51.170Z,3328.00
2024-04-03T09:11:51.189Z,3480.00
2024-04-03T09:12:51.158Z,3668.00
2024-04-03T09:13:51.142Z,3628.00
2024-04-03T09:14:51.135Z,3632.00
2024-04-03T09:15:51.135Z,3984.00
2024-04-03T09:16:56.515Z,4120.00
2024-04-03T09:17:52.180Z,4016.00
2024-04-03T09:18:51.087Z,4280.00
2024-04-03T09:19:51.079Z,4556.00
2024-04-03T09:20:51.442Z,4680.00
2024-04-03T09:21:51.048Z,4360.00
2024-04-03T09:22:51.041Z,4196.00
2024-04-03T09:23:51.029Z,4068.00
2024-04-03T09:24:51.019Z,3940.00
2024-04-03T09:25:51.040Z,3252.00
2024-04-03T09:26:51.002Z,3452.00
2024-04-03T09:27:50.993Z,3532.00
2024-04-03T09:28:50.973Z,3592.00
2024-04-03T09:29:51.000Z,3368.00
2024-04-03T09:30:50.963Z,3260.00
2024-04-03T09:31:50.938Z,3452.00
2024-04-03T09:32:50.927Z,3596.00
2024-04-03T09:33:50.924Z,3704.00
2024-04-03T09:34:50.928Z,3976.00
2024-04-03T09:35:50.894Z,3916.00
2024-04-03T09:36:50.887Z,4644.00
2024-04-03T09:37:50.888Z,4996.00
2024-04-03T09:38:50.873Z,5440.00
2024-04-03T09:39:50.874Z,5776.00
2024-04-03T09:40:50.837Z,5772.00
2024-04-03T09:41:50.826Z,5556.00
2024-04-03T09:42:50.822Z,5340.00
2024-04-03T09:43:50.852Z,5256.00
2024-04-03T09:44:50.810Z,5248.00
2024-04-03T09:45:50.787Z,5188.00
2024-04-03T09:46:50.774Z,5152.00
2024-04-03T09:47:50.783Z,5128.00
2024-04-03T09:48:50.759Z,5044.00
2024-04-03T09:49:50.744Z,4732.00
2024-04-03T09:50:50.722Z,4868.00
2024-04-03T09:51:50.717Z,4840.00
2024-04-03T09:52:50.706Z,4504.00
2024-04-03T09:53:50.708Z,4256.00
2024-04-03T09:54:50.911Z,4220.00
2024-04-03T09:55:50.669Z,4388.00
2024-04-03T09:56:50.659Z,4296.00
2024-04-03T09:57:50.685Z,4236.00
2024-04-03T09:58:50.655Z,4116.00
2024-04-03T09:59:50.624Z,4232.00
2024-04-03T10:00:50.608Z,3956.00
2024-04-03T10:01:50.847Z,3944.00
2024-04-03T10:02:50.608Z,4352.00
2024-04-03T10:03:50.623Z,4840.00
2024-04-03T10:04:50.568Z,5128.00
2024-04-03T10:05:50.548Z,5216.00
2024-04-03T10:06:50.544Z,5032.00
2024-04-03T10:07:50.916Z,4660.00
2024-04-03T10:08:50.527Z,4364.00
2024-04-03T10:09:50.510Z,4204.00
2024-04-03T10:10:50.495Z,4244.00
2024-04-03T10:11:50.488Z,4368.00
2024-04-03T10:12:50.530Z,4436.00
2024-04-03T10:13:50.465Z,4580.00
2024-04-03T10:14:50.489Z,4720.00
2024-04-03T10:15:50.461Z,4808.00
2024-04-03T10:16:50.465Z,4908.00
2024-04-03T10:17:50.455Z,4880.00
2024-04-03T10:18:50.434Z,4880.00
2024-04-03T10:19:50.394Z,4976.00
2024-04-03T10:20:50.383Z,5192.00
2024-04-03T10:21:50.389Z,5492.00
2024-04-03T10:22:50.368Z,5712.00
2024-04-03T10:23:50.359Z,5848.00
2024-04-03T10:24:50.335Z,5940.00
2024-04-03T10:25:50.335Z,5928.00
2024-04-03T10:26:50.650Z,5860.00
2024-04-03T10:27:50.306Z,6048.00
2024-04-03T10:28:50.295Z,6424.00
2024-04-03T10:29:50.283Z,6720.00
2024-04-03T10:30:50.298Z,6928.00
2024-04-03T10:31:50.273Z,7040.00
2024-04-03T10:32:50.249Z,6904.00
2024-04-03T10:33:50.313Z,6664.00
2024-04-03T10:34:50.274Z,6548.00
2024-04-03T10:35:50.241Z,6692.00
2024-04-03T10:36:50.198Z,6764.00
2024-04-03T10:37:50.252Z,6956.00
2024-04-03T10:38:50.180Z,7292.00
2024-04-03T10:39:50.165Z,7592.00
2024-04-03T10:40:54.665Z,7756.00
2024-04-03T10:41:56.046Z,7792.00
2024-04-03T10:42:51.135Z,7748.00
2024-04-03T10:43:50.116Z,7644.00
2024-04-03T10:44:50.118Z,7472.00
2024-04-03T10:45:50.120Z,7400.00
2024-04-03T10:46:50.090Z,7404.00
2024-04-03T10:47:50.075Z,7428.00
2024-04-03T10:48:50.074Z,7460.00
2024-04-03T10:49:50.076Z,7128.00
2024-04-03T10:50:50.054Z,7232.00
2024-04-03T10:51:50.032Z,7472.00
2024-04-03T10:52:50.090Z,7412.00
2024-04-03T10:53:50.017Z,7224.00
2024-04-03T10:54:50.017Z,7320.00
2024-04-03T10:55:49.985Z,7796.00
2024-04-03T10:56:49.979Z,7992.00
2024-04-03T10:57:49.959Z,7932.00
2024-04-03T10:58:49.972Z,7656.00
2024-04-03T10:59:49.956Z,7328.00
2024-04-03T11:00:49.945Z,7044.00
2024-04-03T11:01:49.916Z,6920.00
2024-04-03T11:02:49.921Z,6576.00
2024-04-03T11:03:49.913Z,7432.00
2024-04-03T11:04:49.905Z,7976.00
2024-04-03T11:05:49.891Z,8316.00
2024-04-03T11:06:49.864Z,7676.00
2024-04-03T11:07:49.845Z,7748.00
2024-04-03T11:08:49.852Z,7784.00
2024-04-03T11:09:49.831Z,7044.00
2024-04-03T11:10:49.821Z,6784.00
2024-04-03T11:11:49.802Z,6552.00
2024-04-03T11:12:49.815Z,7048.00
2024-04-03T11:13:49.809Z,7100.00
2024-04-03T11:14:49.767Z,7352.00
2024-04-03T11:15:49.797Z,7512.00
2024-04-03T11:16:49.752Z,7732.00
2024-04-03T11:17:49.754Z,7916.00
2024-04-03T11:18:49.727Z,7956.00
2024-04-03T11:19:49.736Z,7792.00
2024-04-03T11:20:49.727Z,7940.00
2024-04-03T11:21:49.702Z,7992.00
2024-04-03T11:22:49.857Z,8368.00
2024-04-03T11:23:49.684Z,8648.00
2024-04-03T11:24:49.649Z,8828.00
2024-04-03T11:25:49.654Z,9036.00
2024-04-03T11:26:49.636Z,9100.00
2024-04-03T11:27:49.639Z,8948.00
2024-04-03T11:28:49.619Z,8896.00
2024-04-03T11:29:49.600Z,8812.00
2024-04-03T11:30:49.586Z,8796.00
2024-04-03T11:31:49.601Z,8912.00
2024-04-03T11:32:49.585Z,8780.00
2024-04-03T11:33:49.564Z,8796.00
2024-04-03T11:34:49.542Z,8864.00
2024-04-03T11:35:49.533Z,8828.00
2024-04-03T11:36:49.534Z,8764.00
2024-04-03T11:37:49.516Z,8772.00
2024-04-03T11:38:49.495Z,8732.00
2024-04-03T11:39:49.487Z,8556.00
2024-04-03T11:40:49.477Z,8588.00
2024-04-03T11:41:49.472Z,8600.00
2024-04-03T11:42:49.451Z,8104.00
2024-04-03T11:43:49.455Z,8012.00
2024-04-03T11:44:49.441Z,8104.00
2024-04-03T11:45:49.427Z,8516.00
2024-04-03T11:46:49.474Z,8832.00
2024-04-03T11:47:49.398Z,8972.00
2024-04-03T11:48:49.383Z,9144.00
2024-04-03T11:49:49.375Z,9244.00
2024-04-03T11:50:49.379Z,9196.00
2024-04-03T11:51:49.349Z,9212.00
2024-04-03T11:52:49.340Z,9224.00
2024-04-03T11:53:49.344Z,9312.00
2024-04-03T11:54:49.345Z,9148.00
2024-04-03T11:55:49.318Z,9152.00
2024-04-03T11:56:49.303Z,9288.00
2024-04-03T11:57:49.287Z,8788.00
2024-04-03T11:58:49.280Z,8668.00
2024-04-03T11:59:49.273Z,8260.00
2024-04-03T12:00:49.484Z,7932.00
2024-04-03T12:01:49.241Z,8208.00
2024-04-03T12:02:49.228Z,8352.00
2024-04-03T12:03:49.243Z,7796.00
2024-04-03T12:04:49.215Z,7300.00
2024-04-03T12:05:49.206Z,7440.00
2024-04-03T12:06:49.183Z,7808.00
2024-04-03T12:07:49.175Z,8024.00
2024-04-03T12:08:49.168Z,8212.00
2024-04-03T12:09:49.168Z,8136.00
2024-04-03T12:10:49.189Z,8564.00
2024-04-03T12:11:49.116Z,8096.00
2024-04-03T12:12:49.117Z,6972.00
2024-04-03T12:13:49.102Z,6452.00
2024-04-03T12:14:49.099Z,5944.00
2024-04-03T12:15:49.079Z,6232.00
2024-04-03T12:16:49.065Z,6428.00
2024-04-03T12:17:49.056Z,6280.00
2024-04-03T12:18:49.052Z,5788.00
2024-04-03T12:19:49.045Z,6032.00
2024-04-03T12:20:49.011Z,5468.00
2024-04-03T12:21:49.017Z,4964.00
2024-04-03T12:22:49.000Z,4736.00
2024-04-03T12:23:49.432Z,4476.00
2024-04-03T12:24:48.992Z,4684.00
2024-04-03T12:25:48.982Z,4840.00
2024-04-03T12:26:48.948Z,4136.00
2024-04-03T12:27:48.938Z,3248.00
2024-04-03T12:28:48.939Z,2956.00
2024-04-03T12:29:48.925Z,2940.00
2024-04-03T12:30:48.903Z,3132.00
2024-04-03T12:31:48.896Z,3980.00
2024-04-03T12:32:48.902Z,4028.00
2024-04-03T12:33:48.896Z,3676.00